createdAt,value
2018-11-10T00:01:49.479Z,46.50
2018-11-10T00:03:51.793Z,46.97
2018-11-10T00:05:54.075Z,45.80
2018-11-10T00:07:57.149Z,46.87
2018-11-10T00:10:00.731Z,46.97
2018-11-10T00:12:02.940Z,46.40
2018-11-10T00:14:05.231Z,44.60
2018-11-10T00:16:07.449Z,48.00
2018-11-10T00:18:09.686Z,45.67
2018-11-10T00:20:11.954Z,46.80
2018-11-10T00:22:17.632Z,45.67
2018-11-10T00:24:19.794Z,44.43
2018-11-10T00:26:21.969Z,45.27
2018-11-10T00:28:24.142Z,43.17
2018-11-10T00:30:26.378Z,45.17
2018-11-10T00:32:28.591Z,43.80
2018-11-10T00:34:30.821Z,43.13
2018-11-10T00:36:33.363Z,46.47
2018-11-10T00:38:35.522Z,45.03
2018-11-10T00:40:37.693Z,44.67
2018-11-10T00:42:40.054Z,47.30
2018-11-10T00:44:42.387Z,43.50
2018-11-10T00:46:44.549Z,47.30
2018-11-10T00:48:46.714Z,47.23
2018-11-10T00:50:48.877Z,45.07
2018-11-10T00:52:51.054Z,45.47
2018-11-10T00:54:53.217Z,44.77
2018-11-10T01:04:29.829Z,43.43
2018-11-10T01:06:32.030Z,44.10
2018-11-10T01:08:34.501Z,45.37
2018-11-10T01:10:36.699Z,46.20
2018-11-10T01:12:38.899Z,48.73
2018-11-10T01:14:41.452Z,42.67
2018-11-10T01:16:43.698Z,46.90
2018-11-10T01:18:45.940Z,43.87
2018-11-10T01:20:48.178Z,47.30
2018-11-10T01:22:50.400Z,46.70
2018-11-10T01:24:52.660Z,44.50
2018-11-10T01:26:54.936Z,44.43
2018-11-10T01:28:57.144Z,43.97
2018-11-10T01:30:59.321Z,45.50
2018-11-10T01:33:01.541Z,44.87
2018-11-10T01:35:03.822Z,45.77
2018-11-10T01:37:06.031Z,42.77
2018-11-10T01:39:08.313Z,42.60
2018-11-10T01:41:10.529Z,41.83
2018-11-10T01:43:12.733Z,44.00
2018-11-10T01:45:16.304Z,42.30
2018-11-10T01:47:18.506Z,44.13
2018-11-10T01:49:20.705Z,45.10
2018-11-10T01:51:23.291Z,42.87
2018-11-10T01:53:25.486Z,41.53
2018-11-10T01:55:27.662Z,41.30
2018-11-10T01:57:29.878Z,42.17
2018-11-10T01:59:32.099Z,41.87
2018-11-10T02:01:34.313Z,40.47
2018-11-10T02:03:36.522Z,41.50
2018-11-10T02:05:39.023Z,41.40
2018-11-10T02:07:41.238Z,40.60
2018-11-10T02:09:43.458Z,40.50
2018-11-10T02:11:46.169Z,41.30
2018-11-10T02:13:48.400Z,41.13
2018-11-10T02:15:50.625Z,39.87
2018-11-10T02:17:52.867Z,42.23
2018-11-10T02:19:55.329Z,38.00
2018-11-10T02:21:57.637Z,39.70
2018-11-10T02:23:59.965Z,39.30
2018-11-10T02:26:02.210Z,42.17
2018-11-10T02:28:11.250Z,38.00
2018-11-10T02:30:13.702Z,38.67
2018-11-10T02:32:16.170Z,40.17
2018-11-10T02:34:18.464Z,38.60
2018-11-10T02:36:20.825Z,42.70
2018-11-10T02:38:23.068Z,40.97
2018-11-10T02:40:25.329Z,40.43
2018-11-10T02:42:27.575Z,41.10
2018-11-10T02:44:29.795Z,39.20
2018-11-10T02:46:32.027Z,39.10
2018-11-10T02:48:34.309Z,39.07
2018-11-10T02:50:36.546Z,39.30
2018-11-10T02:52:38.794Z,37.73
2018-11-10T02:54:41.120Z,36.40
2018-11-10T02:56:43.353Z,39.17
2018-11-10T02:58:45.601Z,34.67
2018-11-10T03:00:48.121Z,38.30
2018-11-10T03:02:50.398Z,37.23
2018-11-10T03:04:52.635Z,35.83
2018-11-10T03:06:54.869Z,37.27
2018-11-10T03:08:57.138Z,35.97
2018-11-10T03:10:59.343Z,35.17
2018-11-10T03:13:01.594Z,34.37
2018-11-10T03:15:04.390Z,36.00
2018-11-10T03:17:06.675Z,35.97
2018-11-10T03:19:08.942Z,36.73
2018-11-10T03:21:11.136Z,34.50
2018-11-10T03:23:13.314Z,37.43
2018-11-10T03:25:15.550Z,33.90
2018-11-10T03:27:17.789Z,33.97
2018-11-10T03:29:20.037Z,36.77
2018-11-10T03:31:22.590Z,34.10
2018-11-10T03:33:24.761Z,33.60
2018-11-10T03:35:26.978Z,31.60
2018-11-10T03:37:29.388Z,35.47
2018-11-10T03:39:31.594Z,33.70
2018-11-10T03:41:33.826Z,34.77
2018-11-10T03:43:36.823Z,32.03
2018-11-10T03:45:39.051Z,32.10
2018-11-10T03:47:41.306Z,31.63
2018-11-10T03:49:43.925Z,34.57
2018-11-10T03:51:46.193Z,30.30
2018-11-10T03:53:48.455Z,31.73
2018-11-10T03:55:50.891Z,31.03
2018-11-10T03:57:53.130Z,33.57
2018-11-10T03:59:56.127Z,32.37
2018-11-10T04:01:58.367Z,32.20
2018-11-10T04:04:00.691Z,32.07
2018-11-10T04:06:02.910Z,32.30
2018-11-10T04:08:05.734Z,34.83
2018-11-10T04:10:07.950Z,32.47
2018-11-10T04:12:10.226Z,31.03
2018-11-10T04:14:12.646Z,34.10
2018-11-10T04:16:14.862Z,31.93
2018-11-10T04:18:17.042Z,30.90
2018-11-10T04:20:19.294Z,31.77
2018-11-10T04:22:26.848Z,32.83
2018-11-10T04:24:29.030Z,31.40
2018-11-10T04:26:31.479Z,31.63
2018-11-10T04:28:33.703Z,31.83
2018-11-10T04:30:35.919Z,30.03
2018-11-10T04:32:38.261Z,29.87
2018-11-10T04:34:40.478Z,32.20
2018-11-10T04:36:42.798Z,32.53
2018-11-10T04:38:44.999Z,31.60
2018-11-10T04:40:47.205Z,29.10
2018-11-10T04:42:49.496Z,31.43
2018-11-10T04:44:51.676Z,29.63
2018-11-10T04:46:53.950Z,31.43
2018-11-10T04:48:56.553Z,29.57
2018-11-10T04:50:58.817Z,31.97
2018-11-10T04:53:01.047Z,30.17
2018-11-10T04:55:03.638Z,30.37
2018-11-10T04:57:05.842Z,30.03
2018-11-10T04:59:08.147Z,29.53
2018-11-10T05:01:10.360Z,29.10
2018-11-10T05:03:12.539Z,30.63
2018-11-10T05:05:15.018Z,30.57
2018-11-10T05:07:17.190Z,29.47
2018-11-10T05:09:19.372Z,29.27
2018-11-10T05:11:21.605Z,32.23
2018-11-10T05:13:23.819Z,29.50
2018-11-10T05:15:26.029Z,31.10
2018-11-10T05:17:28.229Z,29.40
2018-11-10T05:19:30.413Z,31.53
2018-11-10T05:21:32.614Z,30.30
2018-11-10T05:23:34.825Z,29.20
2018-11-10T05:25:36.999Z,30.93
2018-11-10T05:27:39.287Z,31.00
2018-11-10T05:29:41.791Z,31.23
2018-11-10T05:31:43.993Z,31.17
2018-11-10T05:33:46.205Z,30.83
2018-11-10T05:35:48.698Z,29.97
2018-11-10T05:37:50.892Z,32.00
2018-11-10T05:39:53.124Z,32.70
2018-11-10T05:41:55.578Z,30.03
2018-11-10T05:43:57.783Z,31.60
2018-11-10T05:45:59.980Z,28.07
2018-11-10T05:48:02.210Z,30.50
2018-11-10T05:50:04.723Z,28.50
2018-11-10T05:52:07.051Z,28.03
2018-11-10T05:54:09.255Z,31.80
2018-11-10T05:56:12.497Z,29.97
2018-11-10T05:58:14.733Z,28.03
2018-11-10T06:00:17.000Z,30.00
2018-11-10T06:02:19.706Z,29.23
2018-11-10T06:04:21.917Z,32.57
2018-11-10T06:06:24.112Z,30.50
2018-11-10T06:08:26.328Z,31.80
2018-11-10T06:10:28.620Z,28.50
2018-11-10T06:12:30.825Z,28.87
2018-11-10T06:14:33.054Z,27.80
2018-11-10T06:16:42.232Z,28.67
2018-11-10T06:18:44.479Z,27.03
2018-11-10T06:20:46.738Z,30.20
2018-11-10T06:22:48.983Z,29.80
2018-11-10T06:24:51.203Z,28.20
2018-11-10T06:26:53.666Z,30.53
2018-11-10T06:28:55.835Z,27.97
2018-11-10T06:30:58.023Z,30.37
2018-11-10T06:33:00.255Z,29.00
2018-11-10T06:35:02.659Z,27.60
2018-11-10T06:37:04.962Z,30.07
2018-11-10T06:39:07.614Z,29.70
2018-11-10T06:41:09.885Z,29.30
2018-11-10T06:43:12.069Z,30.57
2018-11-10T06:45:14.259Z,29.43
2018-11-10T06:47:16.650Z,32.80
2018-11-10T06:49:18.781Z,32.20
2018-11-10T06:51:20.957Z,31.50
2018-11-10T06:53:23.138Z,31.70
2018-11-10T06:55:25.376Z,30.37
2018-11-10T06:57:27.682Z,31.50
2018-11-10T06:59:29.908Z,31.37
2018-11-10T07:01:32.197Z,30.90
2018-11-10T07:03:34.515Z,30.23
2018-11-10T07:05:36.656Z,33.00
2018-11-10T07:07:39.663Z,31.53
2018-11-10T07:09:41.897Z,31.17
2018-11-10T07:11:44.098Z,30.30
2018-11-10T07:13:46.314Z,29.97
2018-11-10T07:15:48.594Z,28.63
2018-11-10T07:17:50.831Z,31.40
2018-11-10T07:19:53.200Z,31.00
2018-11-10T07:21:55.408Z,30.30
2018-11-10T07:23:57.659Z,29.27
2018-11-10T07:25:59.995Z,28.80
2018-11-10T07:28:02.258Z,31.30
2018-11-10T07:30:05.727Z,28.50
2018-11-10T07:32:09.031Z,28.87
2018-11-10T07:34:11.245Z,29.23
2018-11-10T07:36:13.477Z,28.07
2018-11-10T07:38:15.696Z,27.80
2018-11-10T07:40:17.923Z,27.67
2018-11-10T07:42:20.144Z,26.47
2018-11-10T07:44:22.432Z,27.70
2018-11-10T07:46:24.629Z,24.10
2018-11-10T07:48:26.984Z,25.50
2018-11-10T07:50:29.230Z,25.13
2018-11-10T07:52:31.468Z,26.97
2018-11-10T07:54:33.675Z,24.27
2018-11-10T07:56:35.911Z,26.80
2018-11-10T07:58:38.117Z,25.30
2018-11-10T08:00:40.318Z,24.50
2018-11-10T08:02:42.546Z,23.40
2018-11-10T08:04:44.746Z,23.50
2018-11-10T08:06:46.963Z,25.37
2018-11-10T08:08:49.190Z,24.00
2018-11-10T08:10:51.383Z,23.30
2018-11-10T08:12:53.587Z,22.00
2018-11-10T08:14:55.797Z,21.30
2018-11-10T08:16:57.990Z,22.30
2018-11-10T08:19:00.254Z,21.90
2018-11-10T08:23:11.504Z,23.07
2018-11-10T08:25:14.425Z,22.87
2018-11-10T08:27:16.671Z,22.10
2018-11-10T08:29:18.886Z,20.80
2018-11-10T08:31:21.100Z,22.10
2018-11-10T08:33:23.832Z,22.60
2018-11-10T08:35:26.016Z,21.17
2018-11-10T08:37:28.810Z,23.47
2018-11-10T08:39:31.163Z,19.03
2018-11-10T08:41:33.331Z,20.47
2018-11-10T08:43:35.571Z,20.80
2018-11-10T08:45:37.836Z,20.77
2018-11-10T08:47:40.902Z,20.40
2018-11-10T08:49:43.816Z,20.90
2018-11-10T08:51:46.055Z,20.03
2018-11-10T08:53:48.271Z,19.53
2018-11-10T08:55:50.468Z,20.60
2018-11-10T08:57:52.761Z,20.70
2018-11-10T08:59:54.963Z,20.07
2018-11-10T09:02:01.092Z,18.83
2018-11-10T09:04:03.335Z,19.23
2018-11-10T09:06:05.555Z,20.13
2018-11-10T09:08:07.935Z,19.77
2018-11-10T09:10:11.268Z,19.97
2018-11-10T09:12:13.518Z,18.63
2018-11-10T09:14:15.747Z,21.00
2018-11-10T09:16:17.962Z,19.73
2018-11-10T09:18:20.186Z,17.83
2018-11-10T09:20:22.396Z,19.67
2018-11-10T09:22:24.611Z,18.93
2018-11-10T09:24:26.926Z,18.80
2018-11-10T09:26:29.195Z,16.30
2018-11-10T09:28:31.407Z,20.60
2018-11-10T09:30:33.680Z,18.00
2018-11-10T09:32:35.970Z,19.67
2018-11-10T09:34:38.257Z,18.90
2018-11-10T09:36:40.578Z,18.27
2018-11-10T09:38:42.871Z,16.97
2018-11-10T09:40:45.372Z,17.80
2018-11-10T09:42:47.692Z,15.77
2018-11-10T09:44:49.951Z,16.80
2018-11-10T09:46:52.486Z,15.77
2018-11-10T10:54:19.059Z,12.03
2018-11-10T10:56:21.434Z,12.67
2018-11-10T10:58:23.725Z,14.33
2018-11-10T11:00:31.809Z,12.57
2018-11-10T11:02:39.719Z,15.67
2018-11-10T11:04:48.280Z,11.70
2018-11-10T11:06:50.563Z,13.10
2018-11-10T11:08:52.806Z,12.77
2018-11-10T11:10:54.977Z,11.67
2018-11-10T11:12:57.640Z,11.00
2018-11-10T11:14:59.907Z,13.10
2018-11-10T11:17:02.033Z,13.93
2018-11-10T11:19:04.379Z,13.03
2018-11-10T11:21:06.619Z,12.27
2018-11-10T11:23:08.875Z,12.20
2018-11-10T11:25:11.198Z,12.10
2018-11-10T11:27:13.370Z,11.63
2018-11-10T11:29:15.594Z,11.63
2018-11-10T11:31:17.658Z,11.80
2018-11-10T11:33:19.862Z,12.20
2018-11-10T11:35:23.296Z,11.50
2018-11-10T11:37:25.442Z,11.40
2018-11-10T11:39:27.626Z,12.30
2018-11-10T11:41:29.918Z,11.67
2018-11-10T11:43:31.923Z,12.07
2018-11-10T11:45:34.104Z,11.60
2018-11-10T11:47:36.272Z,11.10
2018-11-10T11:49:38.428Z,11.53
2018-11-10T11:51:40.654Z,10.60
2018-11-10T11:53:42.838Z,11.17
2018-11-10T11:55:45.066Z,10.47
2018-11-10T11:57:47.370Z,10.40
2018-11-10T11:59:49.409Z,11.10
2018-11-10T12:01:51.573Z,10.73
2018-11-10T12:03:53.797Z,10.80
2018-11-10T12:05:56.003Z,10.23
2018-11-10T12:07:58.223Z,10.67
2018-11-10T12:10:00.611Z,10.40
2018-11-10T12:12:02.841Z,10.00
2018-11-10T12:14:04.999Z,10.27
2018-11-10T12:16:07.168Z,10.70
2018-11-10T12:18:09.318Z,11.23
2018-11-10T12:20:12.657Z,10.33
2018-11-10T12:22:14.842Z,10.97
2018-11-10T12:24:17.038Z,10.60
2018-11-10T12:26:19.205Z,10.77
2018-11-10T12:28:21.455Z,10.70
2018-11-10T12:30:23.873Z,11.30
2018-11-10T12:32:26.042Z,12.70
2018-11-10T12:34:28.197Z,11.60
2018-11-10T12:36:30.365Z,10.97
2018-11-10T12:38:32.848Z,11.00
2018-11-10T12:40:35.016Z,11.77
2018-11-10T12:42:37.940Z,10.07
2018-11-10T12:44:40.155Z,11.90
2018-11-10T12:46:42.400Z,10.70
2018-11-10T12:48:44.876Z,11.53
2018-11-10T12:50:47.229Z,10.30
2018-11-10T12:52:49.580Z,10.83
2018-11-10T12:54:51.901Z,11.17
2018-11-10T12:56:54.072Z,11.87
2018-11-10T12:58:56.365Z,11.60
2018-11-10T13:00:58.645Z,12.80
2018-11-10T13:03:00.816Z,10.33
2018-11-10T13:05:03.105Z,10.43
2018-11-10T13:07:05.369Z,10.60
2018-11-10T13:09:07.817Z,10.07
2018-11-10T13:11:10.001Z,9.50
2018-11-10T13:13:18.964Z,9.90
2018-11-10T13:15:21.249Z,9.27
2018-11-10T13:17:23.926Z,9.47
2018-11-10T13:19:26.128Z,9.80
2018-11-10T13:21:28.388Z,9.63
2018-11-10T13:23:30.624Z,10.80
2018-11-10T13:25:32.819Z,10.40
2018-11-10T13:27:35.106Z,10.67
2018-11-10T13:29:37.601Z,9.87
2018-11-10T13:31:39.958Z,9.10
2018-11-10T13:33:42.305Z,9.80
2018-11-10T13:35:44.626Z,9.27
2018-11-10T13:37:46.855Z,9.50
2018-11-10T13:39:49.130Z,10.20
2018-11-10T13:41:51.340Z,9.83
2018-11-10T13:43:53.682Z,10.30
2018-11-10T13:45:55.780Z,9.20
2018-11-10T13:47:58.070Z,10.50
2018-11-10T13:50:01.073Z,10.77
2018-11-10T13:52:03.584Z,11.47
2018-11-10T13:54:05.505Z,10.07
2018-11-10T13:56:07.679Z,10.40
2018-11-10T13:58:09.914Z,8.80
2018-11-10T14:00:14.423Z,10.63
2018-11-10T14:02:16.675Z,10.93
2018-11-10T14:04:18.912Z,10.37
2018-11-10T14:06:21.076Z,11.03
2018-11-10T14:08:23.290Z,11.00
2018-11-10T14:10:25.489Z,11.40
2018-11-10T14:12:27.681Z,10.63
2018-11-10T14:14:29.879Z,10.50
2018-11-10T14:16:32.050Z,11.83
2018-11-10T14:18:34.252Z,11.43
2018-11-10T14:20:36.483Z,11.00
2018-11-10T14:22:38.619Z,10.50
2018-11-10T14:24:41.087Z,9.90
2018-11-10T14:26:43.302Z,11.20
2018-11-10T14:28:46.652Z,13.20
2018-11-10T14:30:48.930Z,11.10
2018-11-10T14:32:51.412Z,10.93
2018-11-10T14:34:57.912Z,11.40
2018-11-10T14:37:01.821Z,10.97
2018-11-10T14:39:16.937Z,11.17
2018-11-10T14:41:19.222Z,10.47
2018-11-10T14:43:21.522Z,10.33
2018-11-10T14:45:23.839Z,12.60
2018-11-10T14:47:26.191Z,11.57
2018-11-10T14:49:28.663Z,13.20
2018-11-10T14:51:30.991Z,11.13
2018-11-10T14:53:34.350Z,11.67
2018-11-10T14:55:36.853Z,11.23
2018-11-10T14:57:39.458Z,11.73
2018-11-10T14:59:41.679Z,11.43
2018-11-10T15:01:43.953Z,11.40
2018-11-10T15:06:06.551Z,12.80
2018-11-10T15:08:08.770Z,11.60
2018-11-10T15:10:12.808Z,12.40
2018-11-10T15:12:15.096Z,11.63
2018-11-10T15:14:17.232Z,11.60
2018-11-10T15:16:19.462Z,10.97
2018-11-10T15:18:27.849Z,12.30
2018-11-10T15:20:30.039Z,13.67
2018-11-10T15:22:32.665Z,13.30
2018-11-10T15:24:37.236Z,14.80
2018-11-10T15:26:46.228Z,13.00
2018-11-10T15:28:48.568Z,12.80
2018-11-10T15:30:50.947Z,13.47
2018-11-10T15:32:53.382Z,13.43
2018-11-10T15:34:55.619Z,14.77
2018-11-10T15:36:58.082Z,13.97
2018-11-10T15:39:00.375Z,14.17
2018-11-10T15:41:02.595Z,15.60
2018-11-10T15:43:05.036Z,15.50
2018-11-10T15:45:07.678Z,14.43
2018-11-10T15:47:10.108Z,15.30
2018-11-10T15:49:12.479Z,16.43
2018-11-10T15:51:14.808Z,16.23
2018-11-10T15:53:17.117Z,15.20
2018-11-10T15:55:19.706Z,16.13
2018-11-10T15:57:26.199Z,15.67
2018-11-10T15:59:28.530Z,16.70
2018-11-10T16:01:31.083Z,17.07
2018-11-10T16:03:33.423Z,16.43
2018-11-10T16:05:35.663Z,16.40
2018-11-10T16:07:37.917Z,16.33
2018-11-10T16:09:40.200Z,17.63
2018-11-10T16:11:42.464Z,18.00
2018-11-10T16:13:46.122Z,18.00
2018-11-10T16:15:48.421Z,17.20
2018-11-10T16:17:57.360Z,20.17
2018-11-10T16:19:59.825Z,17.70
2018-11-10T16:22:05.827Z,18.70
2018-11-10T16:24:08.143Z,19.70
2018-11-10T16:26:10.541Z,19.07
2018-11-10T16:28:12.945Z,17.53
2018-11-10T16:30:16.513Z,19.80
2018-11-10T16:32:21.518Z,18.83
2018-11-10T16:34:23.974Z,19.03
2018-11-10T16:36:26.271Z,18.60
2018-11-10T16:38:28.574Z,19.10
2018-11-10T16:40:31.170Z,19.10
2018-11-10T16:42:33.370Z,18.33
2018-11-10T16:44:35.788Z,19.83
2018-11-10T16:46:38.169Z,18.10
2018-11-10T16:48:44.995Z,19.20
2018-11-10T16:50:54.696Z,19.93
2018-11-10T16:53:00.536Z,21.00
2018-11-10T16:57:37.186Z,19.70
2018-11-10T16:59:39.737Z,21.10
2018-11-10T17:01:44.496Z,22.70
2018-11-10T17:03:46.787Z,20.00
2018-11-10T17:05:49.035Z,21.10
2018-11-10T17:07:54.254Z,22.00
2018-11-10T17:09:58.830Z,19.57
2018-11-10T17:12:01.266Z,21.37
2018-11-10T17:14:04.601Z,23.10
2018-11-10T17:16:06.822Z,21.63
2018-11-10T17:18:09.105Z,21.17
2018-11-10T17:20:14.400Z,21.27
2018-11-10T17:22:18.986Z,21.10
2018-11-10T17:24:21.370Z,21.90
2018-11-10T17:26:23.647Z,21.10
2018-11-10T17:28:25.939Z,23.43
2018-11-10T17:30:28.194Z,23.80
2018-11-10T17:32:30.447Z,22.07
2018-11-10T17:34:34.093Z,23.90
2018-11-10T17:36:38.390Z,22.90
2018-11-10T17:38:43.292Z,20.67
2018-11-10T17:40:46.828Z,23.00
2018-11-10T17:42:51.904Z,20.97
2018-11-10T17:44:54.318Z,22.63
2018-11-10T17:46:56.842Z,21.30
2018-11-10T17:48:59.220Z,21.03
2018-11-10T17:51:01.424Z,22.60
2018-11-10T17:53:03.854Z,22.77
2018-11-10T17:55:06.799Z,23.70
2018-11-10T17:57:09.102Z,23.60
2018-11-10T17:59:11.446Z,22.77
2018-11-10T18:01:13.651Z,23.40
2018-11-10T18:03:15.876Z,23.40
2018-11-10T18:05:18.189Z,24.13
2018-11-10T18:07:20.379Z,23.23
2018-11-10T18:09:22.550Z,23.50
2018-11-10T18:11:24.773Z,23.10
2018-11-10T18:13:26.953Z,21.53
2018-11-10T18:15:29.120Z,23.33
2018-11-10T18:17:31.312Z,22.57
2018-11-10T18:19:33.512Z,23.93
2018-11-10T18:21:35.733Z,23.57
2018-11-10T18:23:38.042Z,23.00
2018-11-10T18:25:40.218Z,23.30
2018-11-10T18:27:42.558Z,23.63
2018-11-10T18:29:44.748Z,21.93
2018-11-10T18:31:46.915Z,22.90
2018-11-10T18:33:49.302Z,27.07
2018-11-10T18:35:51.486Z,21.47
2018-11-10T18:37:53.675Z,21.83
2018-11-10T18:39:55.965Z,24.10
2018-11-10T18:41:58.081Z,22.37
2018-11-10T18:44:00.260Z,23.13
2018-11-10T18:46:02.541Z,24.40
2018-11-10T18:48:05.105Z,24.50
2018-11-10T18:50:08.197Z,22.97
2018-11-10T18:52:10.774Z,23.40
2018-11-10T18:54:13.166Z,22.57
2018-11-10T18:56:15.338Z,22.50
2018-11-10T18:58:17.684Z,21.10
2018-11-10T19:00:19.774Z,22.20
2018-11-10T19:02:21.998Z,22.50
2018-11-10T19:04:24.203Z,23.40
2018-11-10T19:06:26.443Z,23.10
2018-11-10T19:08:28.570Z,21.80
2018-11-10T19:10:30.753Z,22.60
2018-11-10T19:12:32.955Z,22.10
2018-11-10T19:14:35.129Z,22.50
2018-11-10T19:16:37.328Z,21.30
2018-11-10T19:18:39.519Z,21.93
2018-11-10T19:20:41.684Z,22.03
2018-11-10T19:22:43.948Z,21.53
2018-11-10T19:24:46.124Z,21.20
2018-11-10T19:26:48.696Z,21.10
2018-11-10T19:28:50.879Z,19.30
2018-11-10T19:30:53.041Z,22.47
2018-11-10T19:32:55.247Z,19.43
2018-11-10T19:34:57.414Z,20.83
2018-11-10T19:36:59.634Z,19.80
2018-11-10T19:39:02.018Z,19.50
2018-11-10T19:41:04.209Z,19.83
2018-11-10T19:43:06.405Z,20.17
2018-11-10T19:45:09.203Z,19.60
2018-11-10T19:47:11.470Z,20.93
2018-11-10T19:49:13.667Z,20.83
2018-11-10T19:51:16.324Z,20.57
2018-11-10T19:53:18.373Z,18.40
2018-11-10T19:55:20.571Z,19.20
2018-11-10T19:57:22.791Z,18.10
2018-11-10T19:59:24.965Z,18.83
2018-11-10T20:01:27.162Z,16.73
2018-11-10T20:03:29.722Z,19.23
2018-11-10T20:05:31.900Z,16.87
2018-11-10T20:07:34.077Z,17.67
2018-11-10T20:09:36.395Z,17.77
2018-11-10T20:11:38.595Z,16.40
2018-11-10T20:13:40.797Z,16.77
2018-11-10T20:15:42.976Z,18.73
2018-11-10T20:17:45.302Z,16.43
2018-11-10T20:19:47.491Z,17.33
2018-11-10T20:21:49.707Z,18.10
2018-11-10T20:23:51.948Z,16.40
2018-11-10T20:25:54.130Z,18.13
2018-11-10T20:27:56.777Z,17.97
2018-11-10T20:29:58.942Z,16.53
2018-11-10T20:32:01.163Z,16.60
2018-11-10T20:34:03.346Z,15.80
2018-11-10T20:36:05.506Z,16.87
2018-11-10T20:38:08.417Z,16.00
2018-11-10T20:40:12.075Z,16.67
2018-11-10T20:42:14.392Z,15.70
2018-11-10T20:44:16.814Z,15.47
2018-11-10T20:46:20.514Z,16.30
2018-11-10T20:48:22.776Z,15.73
2018-11-10T20:50:25.196Z,15.40
2018-11-10T20:52:29.306Z,16.20
2018-11-10T20:54:33.356Z,16.00
2018-11-10T20:56:36.947Z,14.50
2018-11-10T20:58:39.146Z,15.37
2018-11-10T21:00:41.583Z,16.80
2018-11-10T21:02:44.891Z,15.10
2018-11-10T21:04:48.226Z,14.80
2018-11-10T21:06:50.543Z,14.80
2018-11-10T21:08:52.768Z,15.27
2018-11-10T21:10:55.083Z,15.63
2018-11-10T21:13:00.815Z,14.13
2018-11-10T21:15:03.049Z,14.17
2018-11-10T21:17:05.399Z,14.20
2018-11-10T21:19:07.680Z,13.27
2018-11-10T21:21:10.234Z,13.57
2018-11-10T21:23:12.551Z,13.80
2018-11-10T21:25:16.663Z,13.10
2018-11-10T21:27:22.990Z,13.77
2018-11-10T21:29:26.098Z,13.30
2018-11-10T21:31:28.324Z,14.23
2018-11-10T21:33:37.549Z,14.13
2018-11-10T21:35:40.025Z,12.70
2018-11-10T21:37:42.110Z,12.97
2018-11-10T21:39:44.344Z,12.80
2018-11-10T21:41:53.885Z,12.93
2018-11-10T21:43:56.306Z,13.53
2018-11-10T21:46:05.576Z,12.27
2018-11-10T21:48:09.076Z,11.93
2018-11-10T21:50:13.696Z,12.77
2018-11-10T21:52:15.907Z,13.03
2018-11-10T21:54:18.444Z,12.63
2018-11-10T21:56:20.734Z,12.23
2018-11-10T21:58:23.906Z,12.97
2018-11-10T22:00:26.566Z,12.20
2018-11-10T22:02:28.904Z,11.67
2018-11-10T22:04:31.022Z,11.43
2018-11-10T22:06:33.872Z,10.80
2018-11-10T22:08:37.857Z,11.33
2018-11-10T22:10:40.215Z,10.80
2018-11-10T22:12:42.780Z,11.70
2018-11-10T22:14:47.377Z,12.20
2018-11-10T22:16:50.589Z,10.77
2018-11-10T22:18:53.210Z,11.30
2018-11-10T22:20:55.386Z,12.30
2018-11-10T22:22:57.600Z,11.33
2018-11-10T22:24:59.754Z,9.93
2018-11-10T22:27:02.080Z,10.13
2018-11-10T22:29:04.390Z,13.53
2018-11-10T22:31:06.818Z,10.20
2018-11-10T22:33:09.027Z,10.73
2018-11-10T22:35:11.358Z,11.93
2018-11-10T22:37:13.610Z,10.83
2018-11-10T22:39:15.943Z,11.37
2018-11-10T22:41:19.291Z,10.13
2018-11-10T22:43:22.228Z,11.33
2018-11-10T22:45:24.652Z,10.50
2018-11-10T22:47:27.693Z,11.00
2018-11-10T22:49:29.891Z,10.37
2018-11-10T22:51:32.090Z,10.53
2018-11-10T22:53:34.329Z,10.47
2018-11-10T22:55:36.487Z,10.90
2018-11-10T22:57:38.887Z,10.93
2018-11-10T22:59:41.278Z,9.70
2018-11-10T23:01:43.530Z,10.57
2018-11-10T23:03:46.665Z,10.70
2018-11-10T23:05:48.771Z,10.23
2018-11-10T23:07:51.016Z,10.30
2018-11-10T23:09:53.424Z,11.00
2018-11-10T23:11:55.618Z,10.03
2018-11-10T23:13:57.782Z,10.57
2018-11-10T23:16:00.023Z,10.23
2018-11-10T23:18:02.206Z,10.70
2018-11-10T23:20:05.242Z,10.33
2018-11-10T23:22:07.789Z,10.93
2018-11-10T23:24:09.992Z,9.77
2018-11-10T23:26:12.202Z,9.67
2018-11-10T23:28:14.474Z,10.13
2018-11-10T23:30:17.895Z,9.93
2018-11-10T23:32:20.066Z,9.40
2018-11-10T23:34:22.248Z,10.53
2018-11-10T23:36:24.439Z,10.03
2018-11-10T23:38:26.642Z,10.33
2018-11-10T23:40:28.809Z,10.07
2018-11-10T23:42:30.961Z,9.57
2018-11-10T23:44:33.473Z,10.33
2018-11-10T23:46:35.830Z,10.37
2018-11-10T23:48:38.686Z,10.17
2018-11-10T23:50:40.925Z,9.57
2018-11-10T23:52:43.213Z,9.30
2018-11-10T23:54:45.446Z,9.60
2018-11-10T23:56:47.643Z,9.47
2018-11-10T23:58:50.110Z,9.87
